Time;durP1;ratioP1;P1;durP2;ratioP2;P2;SDS_P1;SDS_P2;PMS_P1;PMS_P2;Temp;Humidity;BMP_temperature;BMP_pressure;BME280_temperature;BME280_humidity;BME280_pressure;Samples;Min_cycle;Max_cycle;Signal;HPM_P1;HPM_P2
2022/11/02 00:00:26;;;;;;;11.27;7.90;;;10.50;99.90;;;;;;5047901;28;20233;-52
2022/11/02 00:02:53;;;;;;;10.13;7.97;;;10.50;99.90;;;;;;5049109;28;20246;-52
2022/11/02 00:05:23;;;;;;;11.90;8.37;;;10.40;99.90;;;;;;5051080;28;20212;-53
2022/11/02 00:07:53;;;;;;;13.23;8.17;;;10.40;99.90;;;;;;5048988;28;20226;-53
2022/11/02 00:10:21;;;;;;;12.03;8.60;;;10.40;99.90;;;;;;5051578;28;20218;-53
2022/11/02 00:12:48;;;;;;;7.80;7.00;;;10.40;99.90;;;;;;5052499;28;20212;-52
2022/11/02 00:15:16;;;;;;;12.27;8.20;;;10.40;99.90;;;;;;5051792;28;20690;-52
2022/11/02 00:17:46;;;;;;;11.93;8.23;;;10.40;99.90;;;;;;5051647;28;20204;-54
2022/11/02 00:20:16;;;;;;;9.03;7.60;;;10.40;99.90;;;;;;5049922;28;20226;-52
2022/11/02 00:22:44;;;;;;;7.90;7.17;;;10.40;99.90;;;;;;5051668;28;20204;-52
2022/11/02 00:25:15;;;;;;;11.00;7.10;;;10.30;99.90;;;;;;5052283;28;20196;-53
2022/11/02 00:27:43;;;;;;;12.50;9.13;;;10.30;99.90;;;;;;5052719;28;20224;-52
2022/11/02 00:30:11;;;;;;;12.00;7.30;;;10.30;99.90;;;;;;5049935;28;20243;-53
2022/11/02 00:32:38;;;;;;;9.33;8.13;;;10.40;99.90;;;;;;5052189;28;20598;-52
2022/11/02 00:35:06;;;;;;;13.33;8.40;;;10.40;99.90;;;;;;5052206;28;20205;-53
2022/11/02 00:37:33;;;;;;;12.27;8.10;;;10.30;99.90;;;;;;5052339;28;20570;-53
2022/11/02 00:40:00;;;;;;;11.23;7.70;;;10.30;99.90;;;;;;5052502;28;20258;-52
2022/11/02 00:42:29;;;;;;;9.93;8.13;;;10.30;99.90;;;;;;5050109;28;20208;-53
2022/11/02 00:44:56;;;;;;;9.63;7.53;;;10.30;99.90;;;;;;5051028;28;20248;-52
2022/11/02 00:47:23;;;;;;;11.93;8.53;;;10.30;99.90;;;;;;5051905;28;20246;-52
2022/11/02 00:49:50;;;;;;;10.87;8.03;;;10.30;99.90;;;;;;5051979;28;20221;-52
2022/11/02 00:52:17;;;;;;;12.60;7.80;;;10.20;99.90;;;;;;5050985;28;20200;-54
2022/11/02 00:54:44;;;;;;;15.77;8.40;;;10.20;99.90;;;;;;5041909;28;20209;-53
2022/11/02 00:57:11;;;;;;;9.50;8.37;;;10.30;99.90;;;;;;5050499;28;20201;-52
2022/11/02 00:59:40;;;;;;;12.40;8.23;;;10.40;99.90;;;;;;5051379;28;20236;-53
2022/11/02 01:02:07;;;;;;;8.37;7.13;;;10.40;99.90;;;;;;5050453;28;20694;-52
2022/11/02 01:04:34;;;;;;;11.27;9.63;;;10.30;99.90;;;;;;5049121;28;20204;-53
2022/11/02 01:07:02;;;;;;;11.27;9.00;;;10.40;99.90;;;;;;5049881;28;20222;-53
2022/11/02 01:09:29;;;;;;;14.67;11.17;;;10.40;99.90;;;;;;5051361;28;20231;-52
2022/11/02 01:11:56;;;;;;;11.60;9.30;;;10.40;99.90;;;;;;5049161;28;20228;-53
2022/11/02 01:14:23;;;;;;;10.10;9.20;;;10.30;99.90;;;;;;5051286;28;20200;-53
2022/11/02 01:16:52;;;;;;;12.20;9.63;;;10.40;99.90;;;;;;5051363;28;20208;-53
2022/11/02 01:19:20;;;;;;;10.63;9.17;;;10.50;99.90;;;;;;5049532;28;20232;-52
2022/11/02 01:21:47;;;;;;;11.97;9.73;;;10.50;99.90;;;;;;5050205;28;20285;-52
2022/11/02 01:24:14;;;;;;;15.53;9.70;;;10.50;99.90;;;;;;5051370;28;20335;-53
2022/11/02 01:26:42;;;;;;;11.13;9.07;;;10.50;99.90;;;;;;5050466;28;20228;-53
2022/11/02 01:29:09;;;;;;;10.73;8.30;;;10.50;99.90;;;;;;5050719;28;20223;-53
2022/11/02 01:31:36;;;;;;;12.10;7.03;;;10.50;99.90;;;;;;5048240;28;20229;-53
2022/11/02 01:34:04;;;;;;;10.27;8.50;;;10.50;99.90;;;;;;5042744;28;20200;-53
2022/11/02 01:36:31;;;;;;;14.13;8.30;;;10.50;99.90;;;;;;5049516;28;20682;-52
2022/11/02 01:38:58;;;;;;;10.87;8.07;;;10.50;99.90;;;;;;5051076;28;20189;-53
2022/11/02 01:41:44;;;;;;;9.17;7.73;;;10.60;99.90;;;;;;5049652;28;20215;-53
2022/11/02 01:44:28;;;;;;;11.93;8.50;;;10.60;99.90;;;;;;5045100;28;20205;-53
2022/11/02 01:47:01;;;;;;;11.27;9.07;;;10.60;99.90;;;;;;5050039;28;20223;-53
2022/11/02 01:49:33;;;;;;;12.40;9.23;;;10.60;99.90;;;;;;5050624;28;20249;-53
2022/11/02 01:52:06;;;;;;;12.83;9.40;;;10.60;99.90;;;;;;5048699;28;20253;-52
2022/11/02 01:54:36;;;;;;;13.33;8.00;;;10.60;99.90;;;;;;5049578;28;20235;-52
2022/11/02 01:57:06;;;;;;;13.50;9.10;;;10.60;99.90;;;;;;5048414;28;20209;-52
2022/11/02 01:59:37;;;;;;;11.57;9.60;;;10.60;99.90;;;;;;5034233;28;20458;-52
2022/11/02 02:02:07;;;;;;;12.37;8.60;;;10.70;99.90;;;;;;5044725;28;20211;-52
2022/11/02 02:04:37;;;;;;;10.87;8.33;;;10.70;99.90;;;;;;5049509;28;20208;-52
2022/11/02 02:07:05;;;;;;;10.23;8.70;;;10.70;99.90;;;;;;5043133;28;20215;-52
2022/11/02 02:09:33;;;;;;;17.37;9.43;;;10.70;99.90;;;;;;5048360;28;20222;-53
2022/11/02 02:12:00;;;;;;;11.40;8.03;;;10.80;99.90;;;;;;5049138;28;20217;-53
2022/11/02 02:14:27;;;;;;;9.97;7.77;;;10.80;99.90;;;;;;5047049;28;20232;-53
2022/11/02 02:17:06;;;;;;;11.87;9.00;;;10.70;99.90;;;;;;5050227;28;20258;-52
2022/11/02 02:19:41;;;;;;;14.07;9.13;;;10.80;99.90;;;;;;5049978;28;20252;-52
2022/11/02 02:22:35;;;;;;;12.97;8.73;;;10.80;99.90;;;;;;5047985;28;20294;-52
2022/11/02 02:25:21;;;;;;;8.20;7.40;;;10.90;99.90;;;;;;5046070;28;20209;-53
2022/11/02 02:28:03;;;;;;;9.93;8.57;;;10.90;99.90;;;;;;5053676;28;20224;-52
2022/11/02 02:30:37;;;;;;;11.67;8.83;;;10.80;99.90;;;;;;5052749;28;20230;-52
2022/11/02 02:33:09;;;;;;;15.87;9.20;;;10.80;99.90;;;;;;5046165;28;20218;-53
2022/11/02 02:35:43;;;;;;;10.83;8.87;;;10.80;99.90;;;;;;5051913;28;20582;-54
2022/11/02 02:38:15;;;;;;;12.77;8.97;;;10.80;99.90;;;;;;5054176;28;20204;-54
2022/11/02 02:40:49;;;;;;;11.10;8.97;;;10.80;99.90;;;;;;5053266;28;21240;-55
2022/11/02 02:43:22;;;;;;;12.97;8.10;;;10.80;99.90;;;;;;5054202;28;20687;-53
2022/11/02 02:45:53;;;;;;;10.60;9.10;;;10.80;99.90;;;;;;5053970;28;20217;-53
2022/11/02 02:48:23;;;;;;;9.47;8.50;;;10.80;99.90;;;;;;5052217;28;20228;-53
2022/11/02 02:50:53;;;;;;;20.50;9.73;;;10.80;99.90;;;;;;5050462;28;20229;-53
2022/11/02 02:53:24;;;;;;;15.13;9.57;;;10.80;99.90;;;;;;5047833;28;20211;-53
2022/11/02 02:55:51;;;;;;;13.73;9.70;;;10.80;99.90;;;;;;5053765;28;20281;-53
2022/11/02 02:58:24;;;;;;;13.23;9.80;;;10.80;99.90;;;;;;5053907;28;20200;-52
2022/11/02 03:00:52;;;;;;;12.20;9.13;;;10.80;99.90;;;;;;5050527;28;20224;-53
2022/11/02 03:03:23;;;;;;;10.87;8.73;;;10.80;99.90;;;;;;5053049;28;20712;-52
2022/11/02 03:06:04;;;;;;;10.83;9.07;;;10.80;99.90;;;;;;5053434;28;20189;-52
2022/11/02 03:08:32;;;;;;;13.43;8.67;;;10.90;99.90;;;;;;5053591;28;20238;-53
2022/11/02 03:11:07;;;;;;;10.53;7.77;;;10.90;99.90;;;;;;5049168;28;20730;-53
2022/11/02 03:13:44;;;;;;;10.33;7.90;;;10.90;99.90;;;;;;5048152;28;20211;-53
2022/11/02 03:16:22;;;;;;;8.53;7.40;;;10.90;99.90;;;;;;5053278;28;20203;-52
2022/11/02 03:18:58;;;;;;;10.17;8.53;;;11.00;99.90;;;;;;5052219;28;20310;-53
2022/11/02 03:21:31;;;;;;;11.93;8.43;;;11.00;99.90;;;;;;5047199;28;20701;-53
2022/11/02 03:24:02;;;;;;;10.70;7.63;;;11.00;99.90;;;;;;5052577;28;20207;-53
2022/11/02 03:26:33;;;;;;;9.80;8.00;;;11.00;99.90;;;;;;5047665;28;20204;-52
2022/11/02 03:29:08;;;;;;;9.40;7.90;;;11.00;99.90;;;;;;5051784;28;20271;-53
2022/11/02 03:31:40;;;;;;;15.10;8.40;;;11.10;99.90;;;;;;5042133;28;20295;-53
2022/11/02 03:34:20;;;;;;;12.60;8.50;;;11.10;99.90;;;;;;5051354;28;20601;-52
2022/11/02 03:36:51;;;;;;;8.40;7.50;;;11.10;99.90;;;;;;5052736;28;20217;-53
2022/11/02 03:39:22;;;;;;;8.43;7.60;;;11.10;99.90;;;;;;5050688;28;20735;-53
2022/11/02 03:41:51;;;;;;;16.23;7.67;;;11.20;99.90;;;;;;5051604;28;20202;-53
2022/11/02 03:44:23;;;;;;;9.23;8.03;;;11.20;99.90;;;;;;5051420;28;20234;-53
2022/11/02 03:46:52;;;;;;;9.90;8.20;;;11.20;99.90;;;;;;5052722;28;20215;-53
2022/11/02 03:49:22;;;;;;;12.53;8.40;;;11.20;99.90;;;;;;5051887;28;20248;-53
2022/11/02 03:51:50;;;;;;;14.20;8.20;;;11.20;99.90;;;;;;5048899;28;20197;-53
2022/11/02 03:54:25;;;;;;;14.97;8.33;;;11.30;99.90;;;;;;5052515;28;20416;-53
2022/11/02 03:56:56;;;;;;;17.00;12.00;;;11.30;99.90;;;;;;5051653;28;20219;-53
2022/11/02 03:59:25;;;;;;;15.20;11.43;;;11.30;99.90;;;;;;5032003;28;20578;-52
2022/11/02 04:01:52;;;;;;;16.93;10.73;;;11.40;99.90;;;;;;5039097;28;20210;-52
2022/11/02 04:04:19;;;;;;;16.17;10.30;;;11.30;99.90;;;;;;5051226;28;20207;-53
2022/11/02 04:06:48;;;;;;;10.53;9.27;;;11.30;99.90;;;;;;5051508;28;20662;-53
2022/11/02 04:09:16;;;;;;;10.43;9.30;;;11.20;99.90;;;;;;5051989;28;20338;-53
2022/11/02 04:14:38;;;;;;;10.13;9.07;;;11.10;99.90;;;;;;5048881;28;20251;-53
2022/11/02 04:19:50;;;;;;;13.63;8.40;;;11.10;99.90;;;;;;5051303;28;20215;-54
2022/11/02 04:25:21;;;;;;;11.17;8.03;;;11.20;99.90;;;;;;5051542;28;20206;-52
2022/11/02 04:27:50;;;;;;;11.83;7.20;;;11.20;99.90;;;;;;5037375;28;20239;-53
2022/11/02 04:30:20;;;;;;;12.20;7.57;;;11.00;99.90;;;;;;5050717;28;20227;-53
2022/11/02 04:35:36;;;;;;;9.53;6.77;;;11.00;99.90;;;;;;5051751;28;20281;-52
2022/11/02 04:40:49;;;;;;;7.63;6.40;;;10.90;99.90;;;;;;5043617;28;20228;-52
2022/11/02 04:43:16;;;;;;;10.23;6.47;;;10.90;99.90;;;;;;5044984;28;20597;-52
2022/11/02 04:45:45;;;;;;;8.40;7.27;;;10.80;99.90;;;;;;5051172;28;20200;-53
2022/11/02 04:48:12;;;;;;;9.47;7.80;;;10.80;99.90;;;;;;5050897;28;20215;-52
2022/11/02 04:50:39;;;;;;;9.87;7.73;;;10.80;99.90;;;;;;5042568;28;20238;-51
2022/11/02 04:53:07;;;;;;;10.10;7.63;;;10.80;99.90;;;;;;5049982;28;20205;-53
2022/11/02 04:55:34;;;;;;;8.30;7.50;;;10.90;99.90;;;;;;5051241;28;20611;-53
2022/11/02 04:58:01;;;;;;;7.67;6.87;;;10.90;99.90;;;;;;5049594;28;20668;-52
2022/11/02 05:00:28;;;;;;;11.87;8.07;;;11.00;99.90;;;;;;5043772;28;20232;-52
2022/11/02 05:02:57;;;;;;;11.67;7.40;;;11.00;99.90;;;;;;5055076;28;20200;-52
2022/11/02 05:05:24;;;;;;;11.17;6.10;;;11.00;99.90;;;;;;5066482;28;20193;-52
2022/11/02 05:07:51;;;;;;;9.80;8.23;;;11.00;99.90;;;;;;5058541;28;20199;-52
2022/11/02 05:10:18;;;;;;;9.03;6.77;;;11.00;99.90;;;;;;5058099;28;20235;-53
2022/11/02 05:12:45;;;;;;;11.37;8.70;;;11.00;99.90;;;;;;5059524;28;20272;-52
2022/11/02 05:15:12;;;;;;;11.37;7.77;;;11.10;99.90;;;;;;5059308;28;20231;-52
2022/11/02 05:17:39;;;;;;;11.17;7.53;;;11.10;99.90;;;;;;5058591;28;20227;-52
2022/11/02 05:20:09;;;;;;;16.97;8.07;;;11.20;99.90;;;;;;5055250;28;20221;-52
2022/11/02 05:22:36;;;;;;;8.90;7.47;;;11.10;99.90;;;;;;5065340;28;20261;-54
2022/11/02 05:25:03;;;;;;;8.47;6.67;;;11.10;99.90;;;;;;5066729;28;20202;-52
2022/11/02 05:27:30;;;;;;;14.53;7.73;;;11.10;99.90;;;;;;5065825;28;20593;-53
2022/11/02 05:29:58;;;;;;;7.27;6.57;;;11.10;99.90;;;;;;5048938;28;20221;-52
2022/11/02 05:32:27;;;;;;;13.43;7.47;;;11.10;99.90;;;;;;5049854;28;20247;-52
2022/11/02 05:34:54;;;;;;;8.73;6.07;;;11.20;99.90;;;;;;5047463;28;20209;-51
2022/11/02 05:37:22;;;;;;;10.07;6.43;;;11.20;99.90;;;;;;5056001;28;20234;-53
2022/11/02 05:39:49;;;;;;;15.63;8.53;;;11.20;99.90;;;;;;5056100;28;20243;-53
2022/11/02 05:42:16;;;;;;;6.70;6.00;;;11.10;99.90;;;;;;5058433;28;20586;-52
2022/11/02 05:44:43;;;;;;;7.40;5.87;;;11.10;99.90;;;;;;5067385;28;20199;-52
2022/11/02 05:47:10;;;;;;;7.03;5.97;;;11.10;99.90;;;;;;5067813;28;20273;-52
2022/11/02 05:49:37;;;;;;;11.87;5.93;;;11.10;99.90;;;;;;5054086;28;20598;-52
2022/11/02 05:52:04;;;;;;;6.90;6.23;;;11.10;99.90;;;;;;5048581;28;20209;-52
2022/11/02 05:54:33;;;;;;;8.50;6.10;;;11.10;99.90;;;;;;5049272;28;20618;-52
2022/11/02 05:57:00;;;;;;;8.67;5.33;;;11.10;99.90;;;;;;5053415;28;20666;-52
2022/11/02 05:59:27;;;;;;;10.30;6.63;;;11.10;99.90;;;;;;5048791;28;20223;-53
2022/11/02 06:01:54;;;;;;;7.90;5.40;;;11.10;99.90;;;;;;5053325;28;20199;-52
2022/11/02 06:04:22;;;;;;;10.30;6.77;;;11.10;99.90;;;;;;5047607;28;20205;-53
2022/11/02 06:06:49;;;;;;;6.60;5.43;;;11.10;99.90;;;;;;5047862;28;20602;-53
2022/11/02 06:09:16;;;;;;;8.60;5.80;;;11.10;99.90;;;;;;5052809;28;20238;-52
2022/11/02 06:11:45;;;;;;;11.47;6.27;;;11.10;99.90;;;;;;5048415;28;20209;-54
2022/11/02 06:14:12;;;;;;;16.97;10.57;;;11.00;99.90;;;;;;5049202;28;20919;-52
2022/11/02 06:16:39;;;;;;;33.97;17.87;;;11.00;99.90;;;;;;5050690;28;20204;-52
2022/11/02 06:19:06;;;;;;;11.63;7.33;;;11.10;99.90;;;;;;5049457;28;20220;-52
2022/11/02 06:21:33;;;;;;;7.57;5.33;;;11.10;99.90;;;;;;5048825;28;20208;-53
2022/11/02 06:24:00;;;;;;;16.40;7.07;;;11.10;99.90;;;;;;5054070;28;20199;-52
2022/11/02 06:26:27;;;;;;;9.77;6.00;;;11.20;99.90;;;;;;5052308;28;20204;-52
2022/11/02 06:28:55;;;;;;;9.60;5.73;;;11.20;99.90;;;;;;5062915;28;20223;-53
2022/11/02 06:31:22;;;;;;;13.43;5.67;;;11.30;99.90;;;;;;5064426;28;20580;-52
2022/11/02 06:33:49;;;;;;;5.77;5.13;;;11.20;99.90;;;;;;5060305;28;20208;-52
2022/11/02 06:36:16;;;;;;;10.27;4.97;;;11.20;99.90;;;;;;5061503;28;20226;-52
2022/11/02 06:38:44;;;;;;;6.07;5.53;;;11.20;99.90;;;;;;5055000;28;20199;-52
2022/11/02 06:41:12;;;;;;;6.10;4.30;;;11.20;99.90;;;;;;5054811;28;20213;-52
2022/11/02 06:43:39;;;;;;;9.90;5.27;;;11.20;99.90;;;;;;5051025;28;20205;-52
2022/11/02 06:46:08;;;;;;;8.37;5.67;;;11.20;99.90;;;;;;5049214;28;20229;-53
2022/11/02 06:48:35;;;;;;;12.27;5.63;;;11.20;99.90;;;;;;5055043;28;20230;-53
2022/11/02 06:51:03;;;;;;;8.23;4.27;;;11.20;99.90;;;;;;5048855;28;20269;-54
2022/11/02 06:53:30;;;;;;;10.50;5.47;;;11.20;99.90;;;;;;5048490;28;20208;-52
2022/11/02 06:55:58;;;;;;;6.10;4.40;;;11.30;99.90;;;;;;5046623;28;20697;-52
2022/11/02 06:58:26;;;;;;;6.73;4.43;;;11.30;99.90;;;;;;5048752;28;20287;-52
2022/11/02 07:00:58;;;;;;;4.77;4.37;;;11.40;99.90;;;;;;5048652;28;20237;-53
2022/11/02 07:03:27;;;;;;;9.87;4.40;;;11.40;99.90;;;;;;5048226;28;20282;-52
2022/11/02 07:05:54;;;;;;;10.47;3.93;;;11.40;99.90;;;;;;5049228;28;20686;-52
2022/11/02 07:08:22;;;;;;;7.63;3.67;;;11.40;99.90;;;;;;5050078;28;20200;-52
2022/11/02 07:10:49;;;;;;;7.43;4.40;;;11.40;99.90;;;;;;5052573;28;20275;-53
2022/11/02 07:13:17;;;;;;;9.80;3.80;;;11.50;99.90;;;;;;5053852;28;20209;-53
2022/11/02 07:15:44;;;;;;;4.80;3.57;;;11.50;99.90;;;;;;5052830;28;20198;-53
2022/11/02 07:18:12;;;;;;;5.37;4.27;;;11.60;99.90;;;;;;5039973;28;20274;-53
2022/11/02 07:20:40;;;;;;;6.00;4.53;;;11.60;99.90;;;;;;5046918;28;20524;-55
2022/11/02 07:23:07;;;;;;;9.67;4.07;;;11.70;99.90;;;;;;5048754;28;20201;-52
2022/11/02 07:25:35;;;;;;;4.97;4.23;;;11.70;99.90;;;;;;5049378;28;20873;-52
2022/11/02 07:28:02;;;;;;;8.73;5.00;;;11.60;99.90;;;;;;5049041;28;20207;-53
2022/11/02 07:30:31;;;;;;;13.07;6.20;;;11.70;99.90;;;;;;5051005;28;20243;-52
2022/11/02 07:32:58;;;;;;;10.47;6.03;;;11.70;99.90;;;;;;5051171;28;20670;-55
2022/11/02 07:35:26;;;;;;;7.87;5.40;;;11.70;99.90;;;;;;5050320;28;20206;-53
2022/11/02 07:37:59;;;;;;;7.90;5.07;;;11.80;99.90;;;;;;5051476;28;20202;-54
2022/11/02 07:40:27;;;;;;;8.53;4.70;;;12.00;99.90;;;;;;5051159;28;20227;-53
2022/11/02 07:42:54;;;;;;;8.47;6.27;;;12.00;99.90;;;;;;5052804;28;20248;-52
2022/11/02 07:45:22;;;;;;;12.97;6.07;;;11.90;99.90;;;;;;5051112;28;20285;-53
2022/11/02 07:47:49;;;;;;;10.80;6.83;;;11.90;99.90;;;;;;5050788;28;20201;-51
2022/11/02 07:50:19;;;;;;;11.87;6.83;;;11.90;99.90;;;;;;5052637;28;20232;-52
2022/11/02 07:52:47;;;;;;;13.33;7.53;;;11.90;99.90;;;;;;5052245;28;20236;-53
2022/11/02 07:55:17;;;;;;;14.77;8.13;;;11.80;99.90;;;;;;5051175;28;20256;-52
2022/11/02 07:57:53;;;;;;;11.27;7.67;;;11.80;99.90;;;;;;5049002;28;20229;-52
2022/11/02 08:00:20;;;;;;;10.20;7.20;;;11.80;99.90;;;;;;5047300;28;20255;-52
2022/11/02 08:02:47;;;;;;;13.10;7.67;;;11.70;99.90;;;;;;5044538;28;20200;-52
2022/11/02 08:05:14;;;;;;;10.67;6.77;;;11.70;99.90;;;;;;5052678;28;20227;-52
2022/11/02 08:07:41;;;;;;;7.13;6.13;;;11.70;99.90;;;;;;5042257;28;20206;-51
2022/11/02 08:10:09;;;;;;;11.37;6.67;;;11.60;99.90;;;;;;5051773;28;20236;-53
2022/11/02 08:12:37;;;;;;;9.03;7.70;;;11.70;99.90;;;;;;5052282;28;20194;-51
2022/11/02 08:15:05;;;;;;;11.70;6.20;;;11.70;99.90;;;;;;5052211;28;20200;-52
2022/11/02 08:17:32;;;;;;;9.47;6.40;;;11.60;99.90;;;;;;5042731;28;20206;-52
2022/11/02 08:19:59;;;;;;;10.40;6.53;;;11.60;99.90;;;;;;5051434;28;20223;-51
2022/11/02 08:22:26;;;;;;;9.40;7.47;;;11.60;99.90;;;;;;5052418;28;20208;-53
2022/11/02 08:24:53;;;;;;;8.07;6.40;;;11.70;99.90;;;;;;5051367;28;20258;-52
2022/11/02 08:27:20;;;;;;;10.47;7.00;;;11.70;99.90;;;;;;5042933;28;20202;-53
2022/11/02 08:29:49;;;;;;;11.40;7.50;;;11.70;99.90;;;;;;5050526;28;20609;-52
2022/11/02 08:32:16;;;;;;;10.83;8.07;;;11.70;99.90;;;;;;5050051;28;20227;-52
2022/11/02 08:34:43;;;;;;;15.23;8.73;;;11.70;99.90;;;;;;5048367;28;20197;-53
2022/11/02 08:37:10;;;;;;;10.33;7.37;;;11.70;99.90;;;;;;5046157;28;20209;-52
2022/11/02 08:39:37;;;;;;;9.37;7.07;;;11.80;99.90;;;;;;5049090;28;20227;-53
2022/11/02 08:42:04;;;;;;;9.17;6.33;;;11.80;99.90;;;;;;5052430;28;20197;-52
2022/11/02 08:44:31;;;;;;;11.33;6.43;;;11.80;99.90;;;;;;5050301;28;20394;-52
2022/11/02 08:46:59;;;;;;;10.67;6.97;;;11.80;99.90;;;;;;5049211;28;20205;-52
2022/11/02 08:49:26;;;;;;;7.73;6.03;;;11.80;99.90;;;;;;5050051;28;20227;-51
2022/11/02 08:51:53;;;;;;;8.17;5.00;;;11.80;99.90;;;;;;5050143;28;20205;-53
2022/11/02 08:54:20;;;;;;;7.20;6.37;;;11.80;99.90;;;;;;5050239;28;20214;-52
2022/11/02 08:56:47;;;;;;;7.50;5.70;;;11.90;99.90;;;;;;5050578;28;20206;-52
2022/11/02 08:59:18;;;;;;;9.73;6.73;;;11.90;99.90;;;;;;5073178;22;20233;-49
2022/11/02 09:01:45;;;;;;;11.10;7.80;;;11.90;99.90;;;;;;5036911;28;20221;-49
2022/11/02 09:04:16;;;;;;;9.23;5.63;;;12.00;99.90;;;;;;5036860;28;20216;-49
2022/11/02 09:06:43;;;;;;;10.53;7.37;;;12.00;99.90;;;;;;5048005;28;20206;-49
2022/11/02 09:09:10;;;;;;;9.00;5.40;;;12.00;99.90;;;;;;5044874;28;20629;-49
2022/11/02 09:11:37;;;;;;;6.33;4.93;;;12.00;99.90;;;;;;5047903;28;20728;-49
2022/11/02 09:14:05;;;;;;;9.20;6.13;;;12.00;99.90;;;;;;5050249;28;20353;-49
2022/11/02 09:16:32;;;;;;;6.03;4.93;;;12.00;99.90;;;;;;5049247;28;20299;-50
2022/11/02 09:19:00;;;;;;;14.13;5.90;;;12.00;99.90;;;;;;5050563;28;20238;-49
2022/11/02 09:21:28;;;;;;;9.10;5.77;;;11.90;99.90;;;;;;5050997;28;20228;-49
2022/11/02 09:23:55;;;;;;;5.73;4.57;;;11.90;99.90;;;;;;5042206;28;20209;-49
2022/11/02 09:26:22;;;;;;;10.73;5.87;;;12.00;99.90;;;;;;5047227;28;20202;-49
2022/11/02 09:28:49;;;;;;;10.60;7.43;;;12.00;99.90;;;;;;5048553;28;20208;-49
2022/11/02 09:31:16;;;;;;;8.57;5.97;;;12.10;99.90;;;;;;5051471;28;20220;-49
2022/11/02 09:33:43;;;;;;;9.93;6.13;;;12.10;99.90;;;;;;5051838;28;20209;-49
2022/11/02 09:36:10;;;;;;;5.30;4.80;;;12.20;99.90;;;;;;5051417;28;20202;-49
2022/11/02 09:38:38;;;;;;;9.17;4.97;;;12.30;99.90;;;;;;5043833;28;20201;-49
2022/11/02 09:41:13;;;;;;;6.73;4.80;;;12.50;99.90;;;;;;5052095;28;20226;-49
2022/11/02 09:43:50;;;;;;;7.37;4.93;;;12.70;99.90;;;;;;5051394;28;20263;-49
2022/11/02 09:46:20;;;;;;;7.43;5.20;;;12.80;99.90;;;;;;5051183;28;20200;-49
2022/11/02 09:48:52;;;;;;;8.87;6.00;;;12.90;99.90;;;;;;5043599;28;20262;-49
2022/11/02 09:51:21;;;;;;;7.73;5.10;;;13.00;99.90;;;;;;5052011;28;20282;-49
2022/11/02 09:53:55;;;;;;;8.37;5.10;;;13.10;99.90;;;;;;5051741;28;20947;-49
2022/11/02 09:56:23;;;;;;;9.20;5.07;;;13.20;99.90;;;;;;5050891;28;20206;-49
2022/11/02 09:58:56;;;;;;;8.57;5.13;;;13.40;99.90;;;;;;5043446;28;20255;-49
2022/11/02 10:01:45;;;;;;;6.87;5.83;;;13.40;99.90;;;;;;5051627;28;20232;-49
2022/11/02 10:04:45;;;;;;;8.73;5.37;;;13.50;99.90;;;;;;5051540;28;20198;-49
2022/11/02 10:07:24;;;;;;;8.97;5.57;;;13.60;99.90;;;;;;5045875;28;20722;-49
2022/11/02 10:09:57;;;;;;;9.83;4.93;;;13.70;99.90;;;;;;5050295;28;20225;-50
2022/11/02 10:12:30;;;;;;;7.07;6.37;;;13.70;99.90;;;;;;5051882;28;20205;-50
2022/11/02 10:15:03;;;;;;;8.93;5.40;;;13.80;99.90;;;;;;5051513;28;20201;-50
2022/11/02 10:17:34;;;;;;;7.10;4.93;;;13.90;99.90;;;;;;5048375;28;20255;-49
2022/11/02 10:20:07;;;;;;;8.10;5.20;;;13.90;99.90;;;;;;5043003;28;20222;-49
2022/11/02 10:22:39;;;;;;;8.63;5.67;;;14.10;99.90;;;;;;5051481;28;20201;-49
2022/11/02 10:25:11;;;;;;;7.17;5.40;;;14.20;99.90;;;;;;5051490;28;20686;-49
2022/11/02 10:27:39;;;;;;;7.80;5.83;;;14.30;99.90;;;;;;5048743;28;20263;-49
2022/11/02 10:30:11;;;;;;;11.23;6.50;;;14.30;99.90;;;;;;5051082;28;20222;-49
2022/11/02 10:32:41;;;;;;;7.67;5.50;;;14.40;99.90;;;;;;5051409;28;20239;-49
2022/11/02 10:35:17;;;;;;;5.83;4.30;;;14.40;99.90;;;;;;5050955;28;20212;-49
2022/11/02 10:37:57;;;;;;;8.43;4.63;;;14.30;99.90;;;;;;5047192;28;20252;-50
2022/11/02 10:40:42;;;;;;;11.13;5.53;;;14.30;99.90;;;;;;5051168;28;20263;-49
2022/11/02 10:43:25;;;;;;;11.37;5.70;;;14.40;99.90;;;;;;5050829;28;20251;-48
2022/11/02 10:46:18;;;;;;;15.57;5.47;;;14.40;99.90;;;;;;5053467;28;20347;-49
2022/11/02 10:48:55;;;;;;;6.23;5.63;;;14.30;99.90;;;;;;5054520;28;20217;-49
2022/11/02 10:51:23;;;;;;;8.57;5.60;;;14.30;99.90;;;;;;5052953;28;20307;-49
2022/11/02 10:53:52;;;;;;;6.60;4.43;;;14.30;99.90;;;;;;5051096;28;20656;-48
2022/11/02 10:56:22;;;;;;;6.40;5.00;;;14.30;99.90;;;;;;5048160;28;20194;-48
2022/11/02 10:58:59;;;;;;;6.03;4.23;;;14.30;99.90;;;;;;5046647;28;20201;-51
2022/11/02 11:01:27;;;;;;;5.37;4.87;;;14.30;99.90;;;;;;5054863;28;20225;-50
2022/11/02 11:03:56;;;;;;;5.43;4.93;;;14.30;99.90;;;;;;5052760;28;20201;-50
2022/11/02 11:06:24;;;;;;;8.40;5.40;;;14.30;99.90;;;;;;5054099;28;20615;-51
2022/11/02 11:08:52;;;;;;;6.17;5.37;;;14.30;99.90;;;;;;5053302;28;20190;-50
2022/11/02 11:11:23;;;;;;;8.03;5.17;;;14.30;99.90;;;;;;5053239;28;21474;-48
2022/11/02 11:13:57;;;;;;;8.20;5.03;;;14.30;99.90;;;;;;5053155;28;20239;-49
2022/11/02 11:16:33;;;;;;;7.27;6.33;;;14.30;99.90;;;;;;5052624;28;20291;-49
2022/11/02 11:19:01;;;;;;;12.83;6.10;;;14.30;99.90;;;;;;5053157;28;20204;-49
2022/11/02 11:21:37;;;;;;;6.40;5.80;;;14.40;99.90;;;;;;5053446;28;20213;-49
2022/11/02 11:24:29;;;;;;;10.10;6.23;;;14.40;99.90;;;;;;5049327;28;20259;-48
2022/11/02 11:27:17;;;;;;;7.80;5.63;;;14.40;99.90;;;;;;5041068;28;20259;-50
2022/11/02 11:29:51;;;;;;;5.63;5.10;;;14.40;99.90;;;;;;5052947;28;20261;-50
2022/11/02 11:32:22;;;;;;;9.13;5.90;;;14.40;99.90;;;;;;5052986;28;20209;-49
2022/11/02 11:34:56;;;;;;;12.43;5.90;;;14.40;99.90;;;;;;5052832;28;20194;-48
2022/11/02 11:37:24;;;;;;;8.07;5.80;;;14.50;99.90;;;;;;5052187;28;20659;-49
2022/11/02 11:39:55;;;;;;;7.37;5.60;;;14.60;99.90;;;;;;5052763;28;20784;-49
2022/11/02 11:42:25;;;;;;;7.73;5.23;;;14.50;99.90;;;;;;5052881;28;20252;-49
2022/11/02 11:44:58;;;;;;;8.60;4.83;;;14.40;99.90;;;;;;5052524;28;20259;-49
2022/11/02 11:47:27;;;;;;;6.63;4.70;;;14.40;99.90;;;;;;5046702;28;20202;-48
2022/11/02 11:49:56;;;;;;;12.07;6.13;;;14.30;99.90;;;;;;5052949;28;20795;-49
2022/11/02 11:52:27;;;;;;;16.63;9.37;;;14.40;99.90;;;;;;5054095;28;20198;-48
2022/11/02 11:54:56;;;;;;;27.50;14.57;;;14.50;99.90;;;;;;5052991;28;20680;-49
2022/11/02 11:57:28;;;;;;;7.10;6.40;;;14.50;99.90;;;;;;5046418;28;20735;-49
2022/11/02 11:59:57;;;;;;;6.93;5.47;;;14.50;99.90;;;;;;5044858;28;20228;-48
2022/11/02 12:02:27;;;;;;;8.40;5.23;;;14.40;99.90;;;;;;5054067;28;20284;-48
2022/11/02 12:05:04;;;;;;;9.30;4.57;;;14.50;99.90;;;;;;5053635;28;20198;-48
2022/11/02 12:08:07;;;;;;;9.37;4.43;;;14.50;99.90;;;;;;5052811;28;20197;-48
2022/11/02 12:10:50;;;;;;;9.47;3.87;;;14.60;99.90;;;;;;5050008;28;20221;-49
2022/11/02 12:13:30;;;;;;;6.37;4.70;;;14.70;99.90;;;;;;5053622;28;20205;-48
2022/11/02 12:16:10;;;;;;;6.43;5.67;;;14.70;99.90;;;;;;5053623;28;20619;-48
2022/11/02 12:18:57;;;;;;;10.13;6.37;;;14.70;99.90;;;;;;5042159;28;20202;-49
2022/11/02 12:21:38;;;;;;;10.90;4.83;;;14.70;99.90;;;;;;5053394;28;20784;-48
2022/11/02 12:24:27;;;;;;;6.80;4.70;;;14.80;99.90;;;;;;5053176;28;20263;-48
2022/11/02 12:27:10;;;;;;;13.33;5.00;;;14.90;99.90;;;;;;5049967;28;20670;-48
2022/11/02 12:30:00;;;;;;;9.63;5.60;;;15.00;99.90;;;;;;5049886;28;20221;-50
2022/11/02 12:32:47;;;;;;;4.30;3.40;;;15.10;99.90;;;;;;5053262;28;20255;-49
2022/11/02 12:35:27;;;;;;;4.00;2.43;;;15.20;99.90;;;;;;5053263;28;20202;-51
2022/11/02 12:38:08;;;;;;;5.73;2.80;;;15.30;99.90;;;;;;5052228;28;20202;-49
2022/11/02 12:40:45;;;;;;;4.00;2.53;;;15.30;99.90;;;;;;5052888;28;20217;-49
2022/11/02 12:43:24;;;;;;;8.20;1.47;;;15.40;99.90;;;;;;5052591;28;20207;-48
2022/11/02 12:46:00;;;;;;;5.13;1.30;;;15.30;99.90;;;;;;5053008;28;20201;-49
2022/11/02 12:48:40;;;;;;;4.53;2.27;;;15.30;99.90;;;;;;5036244;28;20534;-49
2022/11/02 12:51:12;;;;;;;4.17;1.73;;;15.30;99.90;;;;;;5050230;28;20283;-49
2022/11/02 12:53:47;;;;;;;6.73;1.77;;;15.30;99.90;;;;;;5051893;28;20570;-49
2022/11/02 12:56:21;;;;;;;2.93;1.50;;;15.30;99.90;;;;;;5052542;28;20671;-50
2022/11/02 12:58:49;;;;;;;1.50;1.40;;;15.30;99.90;;;;;;5052425;28;20205;-49
2022/11/02 13:01:24;;;;;;;2.10;0.97;;;15.30;99.90;;;;;;5051101;28;20228;-49
2022/11/02 13:03:57;;;;;;;3.67;1.40;;;15.30;99.90;;;;;;5044656;28;20208;-51
2022/11/02 13:06:30;;;;;;;2.27;0.93;;;15.20;99.90;;;;;;5049666;28;20206;-50
2022/11/02 13:09:02;;;;;;;3.03;1.37;;;15.30;99.90;;;;;;5051053;28;20202;-49
2022/11/02 13:11:34;;;;;;;5.70;1.77;;;15.30;99.90;;;;;;5049312;28;20217;-50